Time;durP1;ratioP1;P1;durP2;ratioP2;P2;SDS_P1;SDS_P2;PMS_P1;PMS_P2;Temp;Humidity;BMP_temperature;BMP_pressure;BME280_temperature;BME280_humidity;BME280_pressure;Samples;Min_cycle;Max_cycle;Signal;HPM_P1;HPM_P2
2022/11/29 00:01:57;;;;;;;;;;;;;;;22.29;49.06;101209.00;7253134;19;152835;-59
2022/11/29 00:04:25;;;;;;;;;;;;;;;22.31;48.34;101205.84;7257296;19;153474;-59
2022/11/29 00:06:55;;;;;;;;;;;;;;;22.30;48.82;101207.88;7253936;19;154272;-59
2022/11/29 00:09:23;;;;;;;;;;;;;;;22.32;48.88;101210.34;7263938;19;153688;-59
2022/11/29 00:14:42;;;;;;;;;;;;;;;22.31;49.13;101214.31;7253473;19;154482;-59
2022/11/29 00:17:09;;;;;;;;;;;;;;;22.30;48.67;101221.09;7254018;19;153970;-59
2022/11/29 00:19:36;;;;;;;;;;;;;;;22.29;48.82;101217.44;7254677;19;152662;-59
2022/11/29 00:22:04;;;;;;;;;;;;;;;22.30;48.90;101223.91;7255697;19;153331;-59
2022/11/29 00:24:31;;;;;;;;;;;;;;;22.32;49.12;101218.78;7254463;19;153749;-59
2022/11/29 00:27:05;;;;;;;;;;;;;;;22.29;49.20;101214.63;7253469;19;152528;-59
2022/11/29 00:29:35;;;;;;;;;;;;;;;22.27;49.31;101213.25;7251962;19;153438;-59
2022/11/29 00:32:04;;;;;;;;;;;;;;;22.26;49.24;101222.88;7264277;19;153546;-59
2022/11/29 00:34:32;;;;;;;;;;;;;;;22.26;49.29;101223.69;7254629;19;155156;-59
2022/11/29 00:36:59;;;;;;;;;;;;;;;22.24;49.46;101223.19;7257452;19;154857;-59
2022/11/29 00:39:26;;;;;;;;;;;;;;;22.24;49.41;101222.34;7256549;19;154380;-59
2022/11/29 00:41:54;;;;;;;;;;;;;;;22.22;49.47;101224.63;7251405;19;153406;-59
2022/11/29 00:44:21;;;;;;;;;;;;;;;22.18;50.26;101239.34;7252191;19;153744;-58
2022/11/29 00:46:48;;;;;;;;;;;;;;;22.14;49.95;101235.47;7254082;19;153191;-58
2022/11/29 00:49:15;;;;;;;;;;;;;;;22.08;50.10;101241.50;7252873;19;153957;-59
2022/11/29 00:51:42;;;;;;;;;;;;;;;22.04;50.72;101237.66;7263803;19;152969;-59
2022/11/29 00:54:11;;;;;;;;;;;;;;;21.98;50.61;101242.56;7252636;19;154379;-59
2022/11/29 00:56:38;;;;;;;;;;;;;;;21.97;51.17;101240.06;7253272;19;154453;-59
2022/11/29 00:59:05;;;;;;;;;;;;;;;21.91;50.98;101239.28;7253404;19;155157;-59
2022/11/29 01:01:32;;;;;;;;;;;;;;;21.88;50.99;101244.72;7254232;19;155029;-59
2022/11/29 01:04:01;;;;;;;;;;;;;;;21.84;51.41;101252.09;7254642;19;153410;-59
2022/11/29 01:06:28;;;;;;;;;;;;;;;21.80;51.92;101246.25;7252066;19;153665;-59
2022/11/29 01:08:59;;;;;;;;;;;;;;;21.78;51.72;101245.72;7251174;19;155119;-59
2022/11/29 01:11:27;;;;;;;;;;;;;;;21.76;51.87;101248.00;7255375;19;153362;-58
2022/11/29 01:13:55;;;;;;;;;;;;;;;21.74;52.04;101253.97;7258662;19;154709;-59
2022/11/29 01:16:24;;;;;;;;;;;;;;;21.70;51.78;101252.91;7252261;19;153604;-59
2022/11/29 01:18:51;;;;;;;;;;;;;;;21.68;51.92;101251.53;7253623;19;153649;-58
2022/11/29 01:21:20;;;;;;;;;;;;;;;21.68;52.02;101245.91;7251151;19;153738;-58
2022/11/29 01:23:47;;;;;;;;;;;;;;;21.68;52.05;101260.81;7254212;19;153614;-58
2022/11/29 01:26:15;;;;;;;;;;;;;;;21.66;52.02;101265.94;7254042;19;154352;-58
2022/11/29 01:28:44;;;;;;;;;;;;;;;21.65;51.96;101263.41;7246685;19;153958;-58
2022/11/29 01:31:13;;;;;;;;;;;;;;;21.64;51.99;101272.97;7254057;19;154261;-58
2022/11/29 01:33:41;;;;;;;;;;;;;;;21.63;52.05;101274.13;7254913;19;153047;-59
2022/11/29 01:36:09;;;;;;;;;;;;;;;21.63;52.06;101274.97;7258944;19;153395;-58
2022/11/29 01:38:37;;;;;;;;;;;;;;;21.62;52.08;101280.91;7252306;19;154485;-59
2022/11/29 01:41:04;;;;;;;;;;;;;;;21.62;51.40;101281.72;7251166;19;152773;-58
2022/11/29 01:43:37;;;;;;;;;;;;;;;21.62;51.78;101292.16;7254027;19;152310;-58
2022/11/29 01:46:04;;;;;;;;;;;;;;;21.61;51.39;101298.91;7249727;19;153113;-58
2022/11/29 01:48:34;;;;;;;;;;;;;;;21.58;51.33;101294.72;7252777;19;155190;-58
2022/11/29 01:51:01;;;;;;;;;;;;;;;21.55;51.37;101297.31;7252046;19;153591;-58
2022/11/29 01:53:28;;;;;;;;;;;;;;;21.54;51.50;101299.28;7254421;19;153657;-58
2022/11/29 01:56:00;;;;;;;;;;;;;;;21.53;51.65;101306.06;7251507;19;154855;-59
2022/11/29 01:58:28;;;;;;;;;;;;;;;21.51;51.58;101313.13;7260603;19;152551;-58
2022/11/29 02:00:56;;;;;;;;;;;;;;;21.49;51.15;101313.44;7248373;19;153531;-58
2022/11/29 02:03:24;;;;;;;;;;;;;;;21.45;51.45;101315.19;7254409;19;154479;-58
2022/11/29 02:05:51;;;;;;;;;;;;;;;21.44;51.48;101319.13;7249601;19;153686;-58
2022/11/29 02:08:26;;;;;;;;;;;;;;;21.44;51.11;101316.31;7249874;19;157744;-58
2022/11/29 02:10:56;;;;;;;;;;;;;;;21.42;51.20;101327.06;7250105;19;153361;-58
2022/11/29 02:13:32;;;;;;;;;;;;;;;21.41;51.33;101328.19;7251814;19;155105;-59
2022/11/29 02:16:09;;;;;;;;;;;;;;;21.39;51.53;101321.22;7250600;19;156811;-58
2022/11/29 02:18:56;;;;;;;;;;;;;;;21.37;51.37;101337.53;7252334;19;152785;-58
2022/11/29 02:21:30;;;;;;;;;;;;;;;21.31;51.69;101336.78;7258624;19;153220;-58
2022/11/29 02:23:58;;;;;;;;;;;;;;;21.33;51.56;101342.94;7253900;19;154583;-58
2022/11/29 02:26:40;;;;;;;;;;;;;;;21.30;51.65;101340.75;7252375;19;153770;-58
2022/11/29 02:29:18;;;;;;;;;;;;;;;21.28;51.48;101345.81;7246392;19;154201;-59
2022/11/29 02:31:55;;;;;;;;;;;;;;;21.24;51.86;101348.41;7250913;19;152848;-59
2022/11/29 02:34:34;;;;;;;;;;;;;;;21.24;51.75;101353.19;7252420;19;153765;-58
2022/11/29 02:37:17;;;;;;;;;;;;;;;21.20;51.97;101352.13;7251460;19;154666;-58
2022/11/29 02:39:53;;;;;;;;;;;;;;;21.21;51.85;101356.63;7250368;19;154758;-58
2022/11/29 02:42:30;;;;;;;;;;;;;;;21.19;51.68;101362.53;7249160;19;153107;-58
2022/11/29 02:45:08;;;;;;;;;;;;;;;21.16;51.85;101354.72;7244375;19;153375;-58
2022/11/29 02:47:43;;;;;;;;;;;;;;;21.15;51.74;101366.25;7249553;19;152982;-59
2022/11/29 02:50:19;;;;;;;;;;;;;;;21.12;51.66;101366.84;7252802;19;153401;-58
2022/11/29 02:52:49;;;;;;;;;;;;;;;21.11;51.97;101362.34;7252167;19;153183;-57
2022/11/29 02:55:23;;;;;;;;;;;;;;;21.08;51.49;101366.56;7245205;19;155515;-58
2022/11/29 02:57:57;;;;;;;;;;;;;;;21.07;51.90;101372.53;7251203;19;155489;-58
2022/11/29 03:00:24;;;;;;;;;;;;;;;21.02;52.01;101376.25;7259319;19;154249;-58
2022/11/29 03:02:52;;;;;;;;;;;;;;;21.01;52.03;101373.72;7256915;19;153048;-58
2022/11/29 03:05:28;;;;;;;;;;;;;;;20.97;52.21;101384.72;7254239;19;154860;-58
2022/11/29 03:08:06;;;;;;;;;;;;;;;20.95;52.01;101383.34;7251662;19;155294;-58
2022/11/29 03:10:41;;;;;;;;;;;;;;;20.91;52.41;101385.91;7254819;19;154028;-58
2022/11/29 03:13:15;;;;;;;;;;;;;;;20.92;52.54;101390.41;7259522;19;152694;-58
2022/11/29 03:15:51;;;;;;;;;;;;;;;20.92;52.09;101403.63;7242799;19;153905;-58
2022/11/29 03:18:28;;;;;;;;;;;;;;;20.88;52.67;101405.34;7255997;19;155346;-58
2022/11/29 03:21:07;;;;;;;;;;;;;;;20.87;52.37;101404.50;7259081;19;154646;-58
2022/11/29 03:23:44;;;;;;;;;;;;;;;20.84;52.20;101405.97;7257896;19;155821;-58
2022/11/29 03:26:14;;;;;;;;;;;;;;;20.83;52.70;101411.88;7247687;19;153777;-58
2022/11/29 03:28:48;;;;;;;;;;;;;;;20.80;52.72;101420.91;7261092;19;154515;-57
2022/11/29 03:31:20;;;;;;;;;;;;;;;20.79;52.50;101422.03;7258523;19;154447;-58
2022/11/29 03:33:57;;;;;;;;;;;;;;;20.77;52.58;101425.13;7257412;19;153714;-58
2022/11/29 03:36:27;;;;;;;;;;;;;;;20.77;52.58;101430.75;7258144;19;152475;-57
2022/11/29 03:38:57;;;;;;;;;;;;;;;20.75;52.66;101440.63;7256026;19;153944;-59
2022/11/29 03:41:29;;;;;;;;;;;;;;;20.74;52.78;101436.97;7254797;19;154211;-57
2022/11/29 03:44:06;;;;;;;;;;;;;;;20.72;52.72;101442.03;7257397;19;155391;-57
2022/11/29 03:46:37;;;;;;;;;;;;;;;20.71;52.92;101451.63;7256358;19;155210;-57
2022/11/29 03:49:08;;;;;;;;;;;;;;;20.70;52.88;101449.09;7256027;19;155008;-58
2022/11/29 03:51:42;;;;;;;;;;;;;;;20.67;52.97;101449.69;7263526;19;155066;-58
2022/11/29 03:54:12;;;;;;;;;;;;;;;20.65;52.96;101447.19;7258113;19;154248;-58
2022/11/29 03:56:39;;;;;;;;;;;;;;;20.63;52.91;101457.00;7253291;19;153459;-58
2022/11/29 03:59:15;;;;;;;;;;;;;;;20.63;52.77;101457.84;7253289;19;153643;-58
2022/11/29 04:01:43;;;;;;;;;;;;;;;20.60;52.71;101463.22;7258236;19;153467;-58
2022/11/29 04:04:20;;;;;;;;;;;;;;;20.60;53.11;101457.63;7253043;19;154126;-58
2022/11/29 04:06:56;;;;;;;;;;;;;;;20.57;52.81;101473.09;7256414;19;155076;-58
2022/11/29 04:09:27;;;;;;;;;;;;;;;20.56;52.88;101479.84;7255821;19;154543;-58
2022/11/29 04:12:05;;;;;;;;;;;;;;;20.56;53.20;101479.00;7253354;19;154278;-59
2022/11/29 04:14:42;;;;;;;;;;;;;;;20.54;52.94;101479.28;7261588;19;153802;-58
2022/11/29 04:17:24;;;;;;;;;;;;;;;20.50;53.12;101477.38;7256757;19;153858;-58
2022/11/29 04:19:51;;;;;;;;;;;;;;;20.51;53.02;101476.25;7254878;19;154332;-58
2022/11/29 04:22:27;;;;;;;;;;;;;;;20.50;53.20;101483.81;7255885;19;152637;-57
2022/11/29 04:25:04;;;;;;;;;;;;;;;20.47;53.01;101481.59;7257381;19;153340;-57
2022/11/29 04:27:32;;;;;;;;;;;;;;;20.46;52.97;101479.94;7253674;19;154002;-58
2022/11/29 04:30:00;;;;;;;;;;;;;;;20.45;52.90;101483.03;7251669;19;153663;-57
2022/11/29 04:32:31;;;;;;;;;;;;;;;20.44;52.97;101490.63;7254708;19;153393;-58
2022/11/29 04:35:05;;;;;;;;;;;;;;;20.42;52.95;101490.06;7255908;19;154048;-58
2022/11/29 04:37:41;;;;;;;;;;;;;;;20.45;53.37;101495.09;7264349;19;153775;-58
2022/11/29 04:40:19;;;;;;;;;;;;;;;20.42;53.22;101506.91;7254115;19;154427;-58
2022/11/29 04:42:49;;;;;;;;;;;;;;;20.41;53.12;101502.44;7255194;19;153831;-58
2022/11/29 04:45:16;;;;;;;;;;;;;;;20.37;53.45;101505.00;7256327;19;152715;-58
2022/11/29 04:47:44;;;;;;;;;;;;;;;20.36;53.34;101502.47;7255767;19;155066;-59
2022/11/29 04:50:21;;;;;;;;;;;;;;;20.35;53.46;101503.63;7254899;19;153526;-58
2022/11/29 04:52:58;;;;;;;;;;;;;;;20.34;53.56;101510.34;7253069;19;155208;-58
2022/11/29 04:55:28;;;;;;;;;;;;;;;20.31;53.49;101503.34;7253947;19;153551;-59
2022/11/29 04:58:03;;;;;;;;;;;;;;;20.31;53.35;101508.13;7261185;19;154224;-58
2022/11/29 05:00:34;;;;;;;;;;;;;;;20.29;53.59;101511.22;7253137;19;154398;-58
2022/11/29 05:03:05;;;;;;;;;;;;;;;20.28;53.42;101506.72;7253003;19;153431;-58
2022/11/29 05:05:41;;;;;;;;;;;;;;;20.29;53.14;101507.56;7253642;19;154270;-57
2022/11/29 05:08:18;;;;;;;;;;;;;;;20.26;53.62;101506.16;7254494;19;153780;-58
2022/11/29 05:10:54;;;;;;;;;;;;;;;20.25;53.21;101517.69;7253571;19;153731;-58
2022/11/29 05:13:31;;;;;;;;;;;;;;;20.24;53.34;101514.06;7254196;19;153936;-58
2022/11/29 05:16:01;;;;;;;;;;;;;;;20.22;53.55;101518.25;7252133;19;155985;-58
2022/11/29 05:18:38;;;;;;;;;;;;;;;20.21;53.69;101527.84;7255375;19;152675;-58
2022/11/29 05:21:10;;;;;;;;;;;;;;;20.20;53.64;101528.97;7259599;19;153328;-57
2022/11/29 05:23:45;;;;;;;;;;;;;;;20.19;53.83;101530.09;7255605;19;153647;-58
2022/11/29 05:26:18;;;;;;;;;;;;;;;20.18;53.61;101531.19;7249965;19;154539;-58
2022/11/29 05:28:46;;;;;;;;;;;;;;;20.16;53.71;101542.75;7251781;19;154674;-58
2022/11/29 05:31:23;;;;;;;;;;;;;;;20.14;53.31;101547.78;7253893;19;152916;-58
2022/11/29 05:33:57;;;;;;;;;;;;;;;20.13;53.86;101545.25;7255665;19;152818;-58
2022/11/29 05:36:34;;;;;;;;;;;;;;;20.11;53.65;101553.16;7252088;19;154694;-58
2022/11/29 05:39:02;;;;;;;;;;;;;;;20.16;53.51;101547.50;7253549;19;153387;-58
2022/11/29 05:41:29;;;;;;;;;;;;;;;20.21;53.78;101550.28;7251937;19;153299;-58
2022/11/29 05:43:59;;;;;;;;;;;;;;;20.30;53.94;101556.97;7260702;19;154750;-58
2022/11/29 05:46:36;;;;;;;;;;;;;;;20.40;53.68;101551.25;7254958;19;153934;-58
2022/11/29 05:49:12;;;;;;;;;;;;;;;20.47;53.74;101554.59;7249174;19;153303;-57
2022/11/29 05:51:43;;;;;;;;;;;;;;;20.51;53.72;101550.06;7254992;19;153063;-57
2022/11/29 05:54:20;;;;;;;;;;;;;;;20.55;53.96;101556.75;7253509;19;154338;-58
2022/11/29 05:56:47;;;;;;;;;;;;;;;20.60;53.63;101562.34;7249319;19;154935;-58
2022/11/29 05:59:19;;;;;;;;;;;;;;;20.66;54.24;101563.97;7253939;19;153466;-57
2022/11/29 06:01:56;;;;;;;;;;;;;;;20.72;54.43;101570.38;7252234;19;153662;-58
2022/11/29 06:04:32;;;;;;;;;;;;;;;20.76;54.28;101571.44;7252724;19;153848;-59
2022/11/29 06:07:07;;;;;;;;;;;;;;;20.80;54.25;101579.00;7258368;19;154759;-57
2022/11/29 06:09:39;;;;;;;;;;;;;;;20.85;54.51;101569.69;7249724;19;153222;-57
2022/11/29 06:12:22;;;;;;;;;;;;;;;20.90;54.00;101575.25;7249099;19;153256;-57
2022/11/29 06:14:59;;;;;;;;;;;;;;;20.95;54.35;101583.63;7253229;19;153513;-57
2022/11/29 06:17:26;;;;;;;;;;;;;;;21.01;54.08;101585.25;7250882;19;153913;-57
2022/11/29 06:19:53;;;;;;;;;;;;;;;21.05;54.36;101586.34;7252955;19;153882;-57
2022/11/29 06:22:20;;;;;;;;;;;;;;;21.10;54.45;101586.28;7252735;19;153451;-57
2022/11/29 06:24:57;;;;;;;;;;;;;;;21.15;54.34;101589.09;7252974;19;155203;-57
2022/11/29 06:27:25;;;;;;;;;;;;;;;21.21;54.45;101601.13;7249238;19;152714;-57
2022/11/29 06:30:01;;;;;;;;;;;;;;;21.25;54.29;101599.38;7264474;19;153159;-58
2022/11/29 06:32:29;;;;;;;;;;;;;;;21.30;54.03;101602.97;7260700;19;153881;-58
2022/11/29 06:34:58;;;;;;;;;;;;;;;21.35;53.84;101604.06;7259126;19;154126;-57
2022/11/29 06:37:28;;;;;;;;;;;;;;;21.40;53.86;101607.63;7259970;19;154227;-57
2022/11/29 06:39:55;;;;;;;;;;;;;;;21.44;53.60;101611.53;7258925;19;153683;-58
2022/11/29 06:42:22;;;;;;;;;;;;;;;21.49;53.53;101617.09;7257199;19;152998;-58
2022/11/29 06:44:49;;;;;;;;;;;;;;;21.53;53.12;101623.78;7256188;19;154770;-58
2022/11/29 06:47:22;;;;;;;;;;;;;;;21.58;53.00;101617.25;7259967;19;153488;-58
2022/11/29 06:49:52;;;;;;;;;;;;;;;21.60;53.25;101615.84;7255796;19;153983;-58
2022/11/29 06:52:29;;;;;;;;;;;;;;;21.66;52.83;101617.47;7265054;19;154048;-58
2022/11/29 06:55:06;;;;;;;;;;;;;;;21.69;53.17;101619.66;7257505;19;154151;-58
2022/11/29 06:57:42;;;;;;;;;;;;;;;21.72;52.89;101627.50;7257609;19;156000;-58
2022/11/29 07:00:15;;;;;;;;;;;;;;;21.76;52.53;101624.91;7259817;19;153308;-58
2022/11/29 07:02:43;;;;;;;;;;;;;;;21.80;52.02;101630.81;7257347;19;153726;-58
2022/11/29 07:05:18;;;;;;;;;;;;;;;21.81;51.92;101632.44;7257416;19;152729;-58
2022/11/29 07:07:47;;;;;;;;;;;;;;;21.84;52.21;101637.50;7257585;19;153767;-58
2022/11/29 07:10:16;;;;;;;;;;;;;;;21.87;51.70;101640.53;7253470;19;154430;-58
2022/11/29 07:12:43;;;;;;;;;;;;;;;21.91;51.48;101647.25;7263101;19;154426;-58
2022/11/29 07:15:12;;;;;;;;;;;;;;;21.94;51.24;101645.84;7258013;19;153550;-57
2022/11/29 07:17:49;;;;;;;;;;;;;;;21.95;51.28;101659.59;7257492;19;153802;-58
2022/11/29 07:20:23;;;;;;;;;;;;;;;21.96;51.09;101660.44;7257391;19;153449;-58
2022/11/29 07:23:00;;;;;;;;;;;;;;;21.99;50.74;101659.81;7260149;19;155509;-58
2022/11/29 07:25:27;;;;;;;;;;;;;;;22.02;50.41;101667.69;7256597;19;154200;-58
2022/11/29 07:28:10;;;;;;;;;;;;;;;22.03;49.91;101677.81;7256318;19;152109;-58
2022/11/29 07:30:49;;;;;;;;;;;;;;;22.03;49.84;101686.25;7256037;19;155078;-58
2022/11/29 07:33:21;;;;;;;;;;;;;;;22.02;49.53;101681.75;7257404;19;153543;-58
2022/11/29 07:35:55;;;;;;;;;;;;;;;22.02;49.63;101681.75;7266067;19;153484;-59
2022/11/29 07:38:42;;;;;;;;;;;;;;;22.03;49.48;101686.25;7255123;19;154027;-58
2022/11/29 07:41:13;;;;;;;;;;;;;;;22.03;49.81;101683.44;7255046;19;153812;-59
2022/11/29 07:43:50;;;;;;;;;;;;;;;22.04;49.50;101685.09;7256517;19;153223;-58
2022/11/29 07:46:17;;;;;;;;;;;;;;;22.06;49.45;101694.09;7256240;19;154269;-58
2022/11/29 07:48:44;;;;;;;;;;;;;;;21.96;43.67;101699.84;7256082;19;154547;-56
2022/11/29 07:51:11;;;;;;;;;;;;;;;21.67;43.80;101694.22;7255603;19;155494;-58
2022/11/29 07:53:39;;;;;;;;;;;;;;;21.80;43.97;101706.75;7258133;19;155217;-58
2022/11/29 07:56:08;;;;;;;;;;;;;;;21.85;44.74;101713.13;7252349;19;153134;-58
2022/11/29 07:58:35;;;;;;;;;;;;;;;21.88;44.83;101714.53;7260656;19;154673;-58
2022/11/29 08:01:01;;;;;;;;;;;;;;;21.90;44.62;101715.06;7252049;19;152557;-58
2022/11/29 08:03:28;;;;;;;;;;;;;;;21.89;44.61;101710.59;7257130;19;154575;-58
2022/11/29 08:05:55;;;;;;;;;;;;;;;21.87;44.82;101719.31;7254939;19;155392;-58
2022/11/29 08:08:22;;;;;;;;;;;;;;;21.87;45.11;101721.28;7256630;19;153527;-58
2022/11/29 08:10:48;;;;;;;;;;;;;;;21.87;45.11;101724.94;7248911;19;153877;-58
2022/11/29 08:13:17;;;;;;;;;;;;;;;21.87;45.11;101733.38;7252405;19;153629;-58
2022/11/29 08:15:44;;;;;;;;;;;;;;;21.87;45.05;101732.53;7256938;19;153474;-58
2022/11/29 08:18:12;;;;;;;;;;;;;;;21.86;45.05;101726.06;7257206;19;154703;-58
2022/11/29 08:20:40;;;;;;;;;;;;;;;21.85;45.31;101732.03;7264381;19;154820;-58
2022/11/29 08:23:09;;;;;;;;;;;;;;;21.84;45.44;101734.00;7255297;19;153989;-58
2022/11/29 08:25:36;;;;;;;;;;;;;;;21.82;45.32;101741.88;7254291;19;153663;-58
2022/11/29 08:28:04;;;;;;;;;;;;;;;21.83;45.14;101742.72;7253999;19;153985;-58
2022/11/29 08:30:30;;;;;;;;;;;;;;;21.84;45.15;101750.03;7256501;19;153259;-58
2022/11/29 08:32:57;;;;;;;;;;;;;;;21.80;45.10;101754.59;7255236;19;154359;-58
2022/11/29 08:35:24;;;;;;;;;;;;;;;21.74;45.74;101757.44;7255670;19;153872;-59
2022/11/29 08:37:52;;;;;;;;;;;;;;;21.82;46.05;101761.56;7253973;19;154219;-58
2022/11/29 08:40:19;;;;;;;;;;;;;;;21.79;46.00;101764.16;7254156;19;153569;-58
2022/11/29 08:42:46;;;;;;;;;;;;;;;21.82;45.99;101769.16;7259485;19;152886;-58
2022/11/29 08:45:13;;;;;;;;;;;;;;;21.82;45.87;101772.81;7253734;19;152927;-58
2022/11/29 08:47:41;;;;;;;;;;;;;;;21.84;45.81;101775.34;7251257;19;153911;-58
2022/11/29 08:50:13;;;;;;;;;;;;;;;21.85;45.94;101774.22;7255918;19;154044;-58
2022/11/29 08:55:18;;;;;;;;;;;;;;;21.86;46.15;101775.88;7245476;19;153384;-58
2022/11/29 08:57:49;;;;;;;;;;;;;;;21.88;46.30;101779.25;7250650;19;153647;-58
2022/11/29 09:00:17;;;;;;;;;;;;;;;21.89;46.13;101766.88;7247393;19;154146;-58
2022/11/29 09:02:44;;;;;;;;;;;;;;;21.90;45.84;101762.88;7249600;19;153875;-58
2022/11/29 09:05:10;;;;;;;;;;;;;;;21.92;45.69;101769.91;7255765;19;153207;-58
2022/11/29 09:07:37;;;;;;;;;;;;;;;21.94;45.71;101770.47;7249017;19;154367;-58
2022/11/29 09:10:07;;;;;;;;;;;;;;;21.97;45.52;101764.25;7249644;19;153712;-58
2022/11/29 09:12:34;;;;;;;;;;;;;;;21.98;45.30;101763.13;7249228;19;154571;-58
2022/11/29 09:15:03;;;;;;;;;;;;;;;21.99;45.33;101761.13;7250507;19;154365;-58
2022/11/29 09:17:30;;;;;;;;;;;;;;;22.00;44.96;101758.03;7251281;19;155104;-58
2022/11/29 09:19:57;;;;;;;;;;;;;;;22.02;45.09;101755.78;7251975;19;154273;-58
2022/11/29 09:22:24;;;;;;;;;;;;;;;22.02;45.07;101746.47;7253579;19;153024;-58
2022/11/29 09:24:51;;;;;;;;;;;;;;;22.03;44.82;101748.16;7259608;19;153765;-59
2022/11/29 09:27:17;;;;;;;;;;;;;;;22.04;45.03;101752.63;7244405;19;156598;-58
2022/11/29 09:29:44;;;;;;;;;;;;;;;22.05;44.87;101754.31;7243283;19;157619;-58
2022/11/29 09:32:11;;;;;;;;;;;;;;;22.03;44.63;101751.78;7246853;19;154449;-58
2022/11/29 09:34:38;;;;;;;;;;;;;;;22.04;44.83;101756.28;7252886;19;153493;-58
2022/11/29 09:37:05;;;;;;;;;;;;;;;22.04;44.59;101755.44;7252402;19;153253;-58
2022/11/29 09:39:32;;;;;;;;;;;;;;;22.04;44.46;101773.19;7251947;19;156508;-58
2022/11/29 09:42:08;;;;;;;;;;;;;;;22.06;43.98;101785.00;7250222;19;152309;-58
2022/11/29 09:44:38;;;;;;;;;;;;;;;22.03;44.20;101791.19;7251162;19;153229;-58
2022/11/29 09:47:08;;;;;;;;;;;;;;;22.01;44.10;101796.28;7259482;19;154546;-58
2022/11/29 09:49:44;;;;;;;;;;;;;;;22.01;43.85;101812.34;7252702;19;153448;-58
2022/11/29 09:52:21;;;;;;;;;;;;;;;22.01;44.23;101813.19;7248011;19;154132;-59
2022/11/29 09:54:51;;;;;;;;;;;;;;;22.00;43.99;101824.72;7249832;19;154360;-58
2022/11/29 09:57:18;;;;;;;;;;;;;;;21.98;44.10;101832.66;7249991;19;153211;-58
2022/11/29 09:59:48;;;;;;;;;;;;;;;21.99;43.67;101832.31;7247925;19;153935;-58
2022/11/29 10:02:19;;;;;;;;;;;;;;;21.99;44.02;101828.66;7252067;19;154180;-58
2022/11/29 10:04:52;;;;;;;;;;;;;;;21.97;43.86;101829.00;7257768;19;154909;-58
2022/11/29 10:07:22;;;;;;;;;;;;;;;21.97;43.78;101828.16;7257177;19;154063;-58
2022/11/29 10:09:52;;;;;;;;;;;;;;;21.95;43.91;101833.22;7267533;19;153000;-58
2022/11/29 10:12:27;;;;;;;;;;;;;;;21.94;43.75;101840.00;7254644;19;155699;-58
2022/11/29 10:14:55;;;;;;;;;;;;;;;21.91;43.67;101832.09;7260325;19;152995;-58
2022/11/29 10:17:25;;;;;;;;;;;;;;;21.88;43.72;101833.53;7261358;19;153520;-58
2022/11/29 10:19:57;;;;;;;;;;;;;;;21.83;43.44;101827.97;7259953;19;153618;-58
2022/11/29 10:22:33;;;;;;;;;;;;;;;21.82;43.80;101840.34;7257728;19;155144;-58
2022/11/29 10:25:01;;;;;;;;;;;;;;;21.81;43.64;101837.81;7261262;19;153651;-58
2022/11/29 10:27:28;;;;;;;;;;;;;;;21.75;43.46;101837.06;7253380;19;154215;-58
2022/11/29 10:29:56;;;;;;;;;;;;;;;21.68;43.86;101834.56;7259182;19;153886;-58
2022/11/29 10:32:24;;;;;;;;;;;;;;;21.67;44.05;101837.66;7265132;19;153682;-58
2022/11/29 10:34:50;;;;;;;;;;;;;;;21.65;44.00;101832.34;7261612;19;153916;-58
2022/11/29 10:37:19;;;;;;;;;;;;;;;21.60;43.97;101832.38;7259251;19;154293;-58
2022/11/29 10:39:57;;;;;;;;;;;;;;;21.57;44.12;101835.81;7259941;19;153821;-58
2022/11/29 10:45:04;;;;;;;;;;;;;;;21.48;44.03;101831.09;7259367;19;153352;-58
2022/11/29 10:47:31;;;;;;;;;;;;;;;21.42;43.91;101833.09;7258024;19;154466;-58
2022/11/29 10:49:58;;;;;;;;;;;;;;;21.42;44.10;101841.53;7259967;19;152402;-58
2022/11/29 10:52:24;;;;;;;;;;;;;;;21.36;44.22;101842.69;7256667;19;153659;-58
2022/11/29 10:54:54;;;;;;;;;;;;;;;21.33;44.31;101843.28;7267203;19;153498;-58
2022/11/29 10:57:21;;;;;;;;;;;;;;;21.30;44.39;101841.06;7254692;19;154264;-58
2022/11/29 10:59:57;;;;;;;;;;;;;;;21.26;44.28;101842.75;7257491;19;154119;-58
2022/11/29 11:02:25;;;;;;;;;;;;;;;21.24;44.63;101839.41;7258006;19;153212;-58
2022/11/29 11:04:52;;;;;;;;;;;;;;;21.22;44.49;101838.84;7258584;19;153371;-58
2022/11/29 11:07:22;;;;;;;;;;;;;;;21.17;44.95;101841.69;7257548;19;156554;-58
2022/11/29 11:09:50;;;;;;;;;;;;;;;21.15;45.12;101850.44;7260947;19;154090;-58
2022/11/29 11:12:19;;;;;;;;;;;;;;;21.11;44.85;101852.13;7255438;19;153897;-58
2022/11/29 11:14:46;;;;;;;;;;;;;;;21.08;44.90;101858.31;7258780;19;153775;-58
2022/11/29 11:17:15;;;;;;;;;;;;;;;21.05;44.91;101864.50;7265623;19;153437;-58
2022/11/29 11:19:42;;;;;;;;;;;;;;;21.05;44.59;101866.47;7259588;19;154934;-58
2022/11/29 11:22:18;;;;;;;;;;;;;;;21.00;44.77;101866.50;7258587;19;153494;-58
2022/11/29 11:24:44;;;;;;;;;;;;;;;20.96;45.25;101873.84;7260465;19;153400;-58
2022/11/29 11:27:12;;;;;;;;;;;;;;;20.92;44.92;101870.78;7251111;19;153757;-58
2022/11/29 11:29:41;;;;;;;;;;;;;;;20.91;44.92;101863.47;7256665;19;153910;-58
2022/11/29 11:32:17;;;;;;;;;;;;;;;20.86;45.23;101855.91;7254040;19;153374;-58
2022/11/29 11:34:53;;;;;;;;;;;;;;;20.84;45.05;101858.19;7259045;19;153773;-57
2022/11/29 11:37:21;;;;;;;;;;;;;;;20.81;45.23;101855.91;7267283;19;153575;-57
2022/11/29 11:39:50;;;;;;;;;;;;;;;20.80;45.03;101850.63;7254998;19;153728;-60
2022/11/29 11:44:57;;;;;;;;;;;;;;;20.73;45.26;101845.28;7257061;19;153587;-57
2022/11/29 11:47:26;;;;;;;;;;;;;;;20.70;45.12;101850.66;7256207;19;154399;-58
2022/11/29 11:49:55;;;;;;;;;;;;;;;20.68;45.17;101844.47;7256570;19;153596;-58
2022/11/29 11:52:24;;;;;;;;;;;;;;;20.63;45.66;101844.50;7256326;19;153844;-58
2022/11/29 11:54:53;;;;;;;;;;;;;;;20.61;45.29;101847.59;7255922;19;155212;-58
2022/11/29 11:57:21;;;;;;;;;;;;;;;20.62;45.28;101848.44;7255351;19;153707;-58
2022/11/29 11:59:49;;;;;;;;;;;;;;;20.59;45.37;101841.44;7260510;19;154038;-58
2022/11/29 12:02:26;;;;;;;;;;;;;;;20.58;45.74;101845.34;7256994;19;154493;-58
2022/11/29 12:04:56;;;;;;;;;;;;;;;20.58;45.59;101844.53;7216583;19;155959;-58
2022/11/29 12:07:29;;;;;;;;;;;;;;;20.55;45.64;101825.44;7254183;19;153612;-58
2022/11/29 12:10:20;;;;;;;;;;;;;;;20.54;45.62;101835.81;7254287;19;153013;-58
2022/11/29 12:12:48;;;;;;;;;;;;;;;20.51;45.72;101842.03;7253192;19;152853;-58
2022/11/29 12:15:19;;;;;;;;;;;;;;;20.49;45.79;101833.03;7252829;19;153347;-58
2022/11/29 12:17:47;;;;;;;;;;;;;;;20.48;45.58;101831.38;7252860;19;152379;-58
2022/11/29 12:20:16;;;;;;;;;;;;;;;20.46;45.70;101833.63;7257510;19;153503;-58
2022/11/29 12:22:49;;;;;;;;;;;;;;;20.45;45.78;101825.47;7262935;19;155422;-58
2022/11/29 12:25:20;;;;;;;;;;;;;;;20.41;45.88;101834.47;7250482;19;155758;-58
2022/11/29 12:27:48;;;;;;;;;;;;;;;20.39;46.07;101844.31;7254071;19;153942;-59
2022/11/29 12:30:15;;;;;;;;;;;;;;;20.37;45.98;101843.75;7256423;19;153682;-58
2022/11/29 12:32:45;;;;;;;;;;;;;;;20.34;45.70;101842.38;7252872;19;154536;-58
2022/11/29 12:35:21;;;;;;;;;;;;;;;20.32;45.84;101841.81;7254041;19;152770;-58
2022/11/29 12:37:54;;;;;;;;;;;;;;;20.31;45.83;101842.94;7256808;19;154064;-58
2022/11/29 12:40:27;;;;;;;;;;;;;;;20.29;46.26;101842.34;7254405;19;152801;-58
2022/11/29 12:42:55;;;;;;;;;;;;;;;20.27;45.93;101838.13;7254321;19;153232;-58
2022/11/29 12:45:31;;;;;;;;;;;;;;;20.25;46.22;101832.84;7262951;19;154139;-58
2022/11/29 12:48:07;;;;;;;;;;;;;;;20.24;45.96;101838.72;7255822;19;154802;-58
2022/11/29 12:50:44;;;;;;;;;;;;;;;20.21;46.46;101833.69;7258595;19;154153;-58
2022/11/29 12:53:17;;;;;;;;;;;;;;;20.19;46.31;101838.72;7253845;19;153962;-58
2022/11/29 12:55:51;;;;;;;;;;;;;;;20.18;46.22;101840.69;7253522;19;154027;-58
2022/11/29 12:58:18;;;;;;;;;;;;;;;20.17;46.51;101841.00;7254187;19;152808;-58